createdAt,value
2017-06-02T00:00:33.033Z,7.58
2017-06-02T00:03:01.909Z,4.98
2017-06-02T00:05:33.641Z,5.24
2017-06-02T00:08:02.492Z,8.94
2017-06-02T00:10:31.383Z,9.90
2017-06-02T00:13:00.234Z,5.20
2017-06-02T00:15:29.118Z,7.24
2017-06-02T00:17:57.231Z,4.30
2017-06-02T00:20:26.100Z,7.24
2017-06-02T00:22:54.964Z,4.92
2017-06-02T00:25:23.916Z,7.44
2017-06-02T00:27:53.670Z,5.90
2017-06-02T00:30:22.648Z,5.66
2017-06-02T00:32:50.849Z,9.36
2017-06-02T00:35:20.526Z,6.70
2017-06-02T00:37:49.432Z,8.56
2017-06-02T00:40:18.316Z,7.34
2017-06-02T00:42:47.192Z,9.14
2017-06-02T00:45:16.049Z,6.50
2017-06-02T00:47:46.827Z,9.48
2017-06-02T00:50:19.613Z,12.30
2017-06-02T00:52:48.503Z,10.28
2017-06-02T00:55:27.864Z,7.80
2017-06-02T00:57:56.746Z,9.96
2017-06-02T01:00:25.625Z,7.54
2017-06-02T01:02:54.507Z,6.52
2017-06-02T01:05:23.403Z,12.58
2017-06-02T01:07:52.307Z,6.40
2017-06-02T01:10:21.201Z,8.32
2017-06-02T01:12:50.054Z,6.50
2017-06-02T01:15:18.918Z,6.30
2017-06-02T01:17:47.797Z,5.96
2017-06-02T01:20:18.976Z,8.38
2017-06-02T01:22:47.851Z,8.14
2017-06-02T01:25:16.726Z,7.66
2017-06-02T01:27:45.610Z,7.20
2017-06-02T01:30:15.245Z,7.52
2017-06-02T01:32:44.570Z,5.96
2017-06-02T01:35:13.518Z,8.68
2017-06-02T01:37:42.371Z,5.30
2017-06-02T01:40:11.227Z,9.80
2017-06-02T01:42:40.079Z,6.14
2017-06-02T01:45:08.945Z,9.84
2017-06-02T01:47:37.802Z,5.96
2017-06-02T01:50:06.658Z,13.28
2017-06-02T01:52:35.556Z,6.18
2017-06-02T01:55:04.434Z,6.16
2017-06-02T01:57:33.302Z,6.54
2017-06-02T02:00:01.419Z,10.08
2017-06-02T02:02:30.264Z,8.26
2017-06-02T02:04:58.340Z,10.52
2017-06-02T02:07:27.196Z,9.74
2017-06-02T02:09:56.083Z,8.54
2017-06-02T02:12:24.983Z,8.62
2017-06-02T02:14:53.859Z,5.60
2017-06-02T02:17:22.728Z,6.84
2017-06-02T02:19:50.835Z,7.86
2017-06-02T02:22:19.728Z,8.94
2017-06-02T02:24:48.623Z,9.12
2017-06-02T02:27:17.492Z,10.18
2017-06-02T02:29:46.349Z,5.98
2017-06-02T02:32:15.223Z,5.74
2017-06-02T02:34:44.083Z,7.60
2017-06-02T02:37:13.056Z,7.48
2017-06-02T02:39:41.957Z,7.04
2017-06-02T02:42:10.878Z,6.44
2017-06-02T02:44:39.863Z,4.30
2017-06-02T02:47:08.854Z,8.00
2017-06-02T02:49:38.967Z,8.86
2017-06-02T02:52:07.893Z,7.56
2017-06-02T02:54:36.012Z,8.72
2017-06-02T02:57:04.904Z,9.04
2017-06-02T02:59:32.984Z,9.26
2017-06-02T03:02:01.880Z,7.46
2017-06-02T03:04:34.361Z,6.22
2017-06-02T03:07:03.281Z,5.70
2017-06-02T03:09:31.408Z,7.60
2017-06-02T03:12:00.344Z,6.22
2017-06-02T03:14:29.224Z,8.56
2017-06-02T03:16:58.111Z,9.06
2017-06-02T03:19:27.012Z,8.76
2017-06-02T03:21:58.878Z,8.20
2017-06-02T03:24:27.773Z,8.12
2017-06-02T03:26:56.626Z,7.52
2017-06-02T03:29:25.483Z,7.46
2017-06-02T03:31:54.432Z,10.50
2017-06-02T03:34:23.291Z,6.46
2017-06-02T03:36:52.172Z,6.20
2017-06-02T03:39:20.305Z,7.68
2017-06-02T03:41:49.206Z,7.36
2017-06-02T03:44:19.855Z,9.90
2017-06-02T03:46:48.742Z,7.56
2017-06-02T03:49:17.644Z,7.10
2017-06-02T03:51:46.510Z,4.88
2017-06-02T03:54:15.578Z,3.84
2017-06-02T03:56:44.523Z,8.22
2017-06-02T03:59:13.408Z,5.22
2017-06-02T04:01:42.373Z,10.20
2017-06-02T04:04:11.243Z,7.82
2017-06-02T04:06:40.110Z,7.80
2017-06-02T04:09:08.996Z,6.66
2017-06-02T04:11:38.745Z,6.04
2017-06-02T04:14:07.646Z,7.02
2017-06-02T04:16:38.524Z,5.08
2017-06-02T04:19:07.455Z,5.96
2017-06-02T04:21:36.307Z,5.14
2017-06-02T04:24:05.164Z,7.20
2017-06-02T04:26:34.030Z,5.96
2017-06-02T04:29:02.120Z,4.54
2017-06-02T04:31:31.066Z,5.26
2017-06-02T04:33:59.947Z,6.02
2017-06-02T04:36:28.819Z,4.26
2017-06-02T04:38:57.706Z,7.22
2017-06-02T04:41:26.580Z,6.28
2017-06-02T04:43:55.825Z,8.30
2017-06-02T04:46:24.787Z,7.64
2017-06-02T04:48:53.771Z,7.06
2017-06-02T04:51:22.728Z,7.48
2017-06-02T04:53:51.624Z,5.90
2017-06-02T04:56:20.512Z,6.22
2017-06-02T04:58:48.615Z,5.38
2017-06-02T05:01:17.507Z,5.58
2017-06-02T05:03:46.395Z,5.72
2017-06-02T05:09:15.830Z,3.72
2017-06-02T05:11:44.939Z,5.52
2017-06-02T05:14:13.882Z,7.74
2017-06-02T05:16:42.765Z,7.50
2017-06-02T05:19:10.896Z,6.68
2017-06-02T05:21:39.122Z,6.08
2017-06-02T05:24:07.295Z,7.50
2017-06-02T05:26:36.540Z,8.84
2017-06-02T05:29:04.627Z,8.12
2017-06-02T05:31:33.523Z,5.92
2017-06-02T05:34:02.448Z,12.42
2017-06-02T05:39:32.228Z,8.72
2017-06-02T05:42:01.096Z,9.60
2017-06-02T05:44:29.236Z,12.70
2017-06-02T05:46:58.203Z,10.04
2017-06-02T05:49:27.205Z,7.26
2017-06-02T05:51:55.360Z,8.86
2017-06-02T05:54:24.250Z,7.98
2017-06-02T05:56:53.099Z,7.66
2017-06-02T05:59:21.999Z,12.24
2017-06-02T06:01:50.943Z,7.20
2017-06-02T06:04:19.840Z,6.90
2017-06-02T06:06:48.711Z,10.70
2017-06-02T06:09:17.617Z,7.12
2017-06-02T06:11:46.508Z,6.50
2017-06-02T06:14:15.392Z,10.26
2017-06-02T06:16:44.287Z,6.62
2017-06-02T06:19:13.227Z,8.56
2017-06-02T06:21:42.109Z,15.68
2017-06-02T06:24:11.007Z,12.70
2017-06-02T06:26:40.015Z,11.28
2017-06-02T06:29:08.965Z,13.80
2017-06-02T06:31:37.103Z,8.84
2017-06-02T06:34:05.223Z,14.02
2017-06-02T06:36:35.696Z,8.10
2017-06-02T06:39:04.588Z,9.64
2017-06-02T06:41:33.683Z,6.78
2017-06-02T06:44:02.660Z,8.36
2017-06-02T06:46:34.908Z,9.20
2017-06-02T06:49:03.897Z,9.10
2017-06-02T06:51:32.022Z,8.36
2017-06-02T06:54:00.995Z,8.72
2017-06-02T06:56:29.895Z,10.64
2017-06-02T06:58:58.044Z,6.96
2017-06-02T07:01:26.938Z,6.60
2017-06-02T07:03:55.795Z,8.14
2017-06-02T07:06:24.792Z,7.90
2017-06-02T07:08:52.962Z,7.28
2017-06-02T07:11:21.986Z,5.52
2017-06-02T07:13:50.154Z,7.70
2017-06-02T07:16:19.167Z,9.10
2017-06-02T07:18:47.362Z,6.00
2017-06-02T07:21:16.269Z,7.76
2017-06-02T07:23:44.413Z,6.86
2017-06-02T07:26:14.301Z,7.28
2017-06-02T07:28:43.290Z,3.16
2017-06-02T07:31:12.184Z,3.60
2017-06-02T07:33:41.057Z,6.74
2017-06-02T07:36:09.979Z,10.56
2017-06-02T07:38:38.911Z,6.04
2017-06-02T07:41:07.804Z,3.88
2017-06-02T07:43:36.737Z,4.94
2017-06-02T07:46:05.714Z,4.54
2017-06-02T07:48:34.613Z,7.24
2017-06-02T07:51:03.493Z,6.96
2017-06-02T07:53:31.645Z,3.36
2017-06-02T07:56:00.564Z,4.88
2017-06-02T07:58:29.633Z,3.38
2017-06-02T08:00:58.511Z,4.84
2017-06-02T08:03:27.400Z,6.12
2017-06-02T08:05:56.485Z,5.52
2017-06-02T08:08:25.460Z,8.90
2017-06-02T08:10:54.488Z,2.32
2017-06-02T08:13:23.552Z,4.10
2017-06-02T08:15:52.439Z,3.78
2017-06-02T08:18:20.637Z,3.86
2017-06-02T08:20:48.856Z,3.66
2017-06-02T08:23:17.077Z,4.40
2017-06-02T08:25:46.010Z,5.06
2017-06-02T08:28:14.921Z,1.82
2017-06-02T08:30:43.783Z,6.62
2017-06-02T08:33:11.986Z,7.48
2017-06-02T08:35:40.859Z,2.78
2017-06-02T08:38:09.799Z,2.50
2017-06-02T08:40:38.717Z,2.24
2017-06-02T08:43:07.643Z,3.28
2017-06-02T08:45:36.540Z,7.76
2017-06-02T08:48:05.443Z,1.60
2017-06-02T08:50:35.329Z,2.22
2017-06-02T08:53:04.286Z,3.66
2017-06-02T08:55:33.162Z,8.34
2017-06-02T08:58:02.155Z,3.50
2017-06-02T09:00:31.123Z,3.22
2017-06-02T09:03:00.039Z,2.58
2017-06-02T09:05:28.889Z,1.82
2017-06-02T09:07:58.118Z,6.08
2017-06-02T09:10:26.936Z,3.04
2017-06-02T09:12:56.731Z,4.78
2017-06-02T09:15:25.696Z,2.98
2017-06-02T09:17:54.987Z,3.32
2017-06-02T09:20:23.274Z,3.52
2017-06-02T09:22:51.436Z,3.64
2017-06-02T09:25:20.429Z,3.00
2017-06-02T09:27:48.593Z,4.20
2017-06-02T09:30:16.712Z,3.46
2017-06-02T09:32:45.603Z,4.44
2017-06-02T09:35:14.471Z,4.06
2017-06-02T09:37:42.676Z,5.64
2017-06-02T09:40:10.778Z,5.58
2017-06-02T09:42:39.770Z,1.98
2017-06-02T09:45:08.693Z,6.48
2017-06-02T09:47:37.785Z,3.60
2017-06-02T09:50:05.912Z,7.82
2017-06-02T09:52:34.107Z,6.14
2017-06-02T09:55:03.117Z,5.48
2017-06-02T09:57:33.011Z,4.14
2017-06-02T10:00:01.865Z,3.86
2017-06-02T10:02:30.755Z,2.20
2017-06-02T10:04:59.642Z,3.52
2017-06-02T10:07:28.601Z,4.48
2017-06-02T10:09:57.483Z,3.72
2017-06-02T10:12:26.432Z,2.74
2017-06-02T10:14:55.320Z,3.44
2017-06-02T10:17:24.411Z,1.54
2017-06-02T10:19:53.955Z,5.18
2017-06-02T10:22:22.905Z,3.10
2017-06-02T10:24:52.225Z,6.26
2017-06-02T10:27:21.190Z,5.20
2017-06-02T10:29:49.343Z,10.74
2017-06-02T10:32:18.384Z,3.64
2017-06-02T10:34:47.371Z,9.92
2017-06-02T10:37:16.277Z,7.38
2017-06-02T10:39:45.359Z,7.20
2017-06-02T10:42:13.525Z,10.14
2017-06-02T10:44:41.615Z,6.54
2017-06-02T10:47:10.514Z,4.94
2017-06-02T10:49:39.576Z,2.12
2017-06-02T10:52:08.722Z,7.00
2017-06-02T10:54:39.090Z,6.10
2017-06-02T10:57:08.189Z,4.18
2017-06-02T10:59:37.125Z,5.98
2017-06-02T11:02:06.113Z,4.14
2017-06-02T11:04:35.019Z,3.32
2017-06-02T11:07:07.164Z,4.16
2017-06-02T11:09:36.331Z,6.80
2017-06-02T11:12:05.886Z,8.06
2017-06-02T11:14:37.516Z,3.70
2017-06-02T11:17:12.364Z,5.56
2017-06-02T11:19:42.416Z,3.32
2017-06-02T11:22:11.317Z,4.20
2017-06-02T11:24:40.337Z,3.64
2017-06-02T11:27:09.306Z,3.44
2017-06-02T11:29:40.424Z,2.18
2017-06-02T11:32:09.467Z,3.22
2017-06-02T11:34:37.572Z,3.12
2017-06-02T11:37:06.506Z,3.32
2017-06-02T11:39:40.660Z,2.56
2017-06-02T11:42:09.652Z,3.78
2017-06-02T11:44:38.626Z,4.32
2017-06-02T11:47:07.493Z,4.28
2017-06-02T11:49:35.646Z,2.18
2017-06-02T11:52:04.633Z,2.40
2017-06-02T11:54:33.504Z,3.44
2017-06-02T11:57:02.361Z,3.00
2017-06-02T11:59:31.291Z,3.14
2017-06-02T12:02:00.258Z,3.02
2017-06-02T12:04:29.123Z,2.90
2017-06-02T12:06:58.219Z,3.10
2017-06-02T12:09:27.158Z,7.48
2017-06-02T12:11:55.315Z,3.54
2017-06-02T12:14:23.439Z,3.58
2017-06-02T12:16:52.524Z,3.92
2017-06-02T12:19:27.908Z,5.34
2017-06-02T12:21:56.824Z,3.04
2017-06-02T12:24:25.744Z,4.88
2017-06-02T12:26:54.632Z,2.86
2017-06-02T12:29:22.768Z,4.84
2017-06-02T12:31:50.897Z,2.64
2017-06-02T12:34:19.035Z,3.90
2017-06-02T12:36:48.754Z,3.68
2017-06-02T12:39:18.660Z,4.52
2017-06-02T12:41:47.548Z,2.96
2017-06-02T12:44:16.481Z,6.84
2017-06-02T12:46:45.481Z,4.04
2017-06-02T12:49:16.414Z,2.54
2017-06-02T12:51:45.298Z,4.04
2017-06-02T12:54:14.252Z,3.62
2017-06-02T12:56:43.108Z,2.96
2017-06-02T12:59:11.990Z,3.04
2017-06-02T13:01:40.861Z,4.32
2017-06-02T13:04:09.879Z,2.50
2017-06-02T13:06:38.762Z,3.92
2017-06-02T13:09:07.658Z,3.10
2017-06-02T13:11:38.595Z,5.86
2017-06-02T13:14:06.760Z,4.74
2017-06-02T13:16:35.769Z,3.04
2017-06-02T13:19:04.679Z,3.30
2017-06-02T13:21:44.905Z,2.80
2017-06-02T13:24:14.027Z,2.46
2017-06-02T13:26:45.813Z,2.88
2017-06-02T13:29:14.889Z,6.12
2017-06-02T13:31:44.775Z,3.82
2017-06-02T13:34:13.653Z,3.66
2017-06-02T13:36:42.568Z,3.00
2017-06-02T13:39:11.530Z,3.16
2017-06-02T13:41:40.426Z,4.14
2017-06-02T13:44:09.379Z,4.30
2017-06-02T13:46:38.269Z,2.78
2017-06-02T13:49:07.177Z,3.70
2017-06-02T13:51:36.047Z,3.30
2017-06-02T13:54:05.114Z,1.52
2017-06-02T13:56:34.283Z,3.06
2017-06-02T13:59:02.404Z,3.02
2017-06-02T14:01:31.484Z,4.76
2017-06-02T14:04:00.390Z,5.80
2017-06-02T14:06:29.314Z,1.56
2017-06-02T14:08:58.307Z,6.14
2017-06-02T14:11:27.233Z,3.54
2017-06-02T14:13:56.658Z,2.34
2017-06-02T14:16:25.645Z,1.84
2017-06-02T14:18:54.562Z,4.16
2017-06-02T14:21:23.571Z,2.54
2017-06-02T14:23:52.637Z,2.26
2017-06-02T14:26:22.761Z,2.12
2017-06-02T14:28:50.940Z,2.42
2017-06-02T14:31:19.899Z,2.42
2017-06-02T14:33:48.873Z,3.78
2017-06-02T14:36:17.773Z,3.40
2017-06-02T14:38:46.662Z,3.96
2017-06-02T14:41:15.535Z,5.48
2017-06-02T14:43:45.379Z,5.84
2017-06-02T14:46:14.273Z,2.32
2017-06-02T14:48:43.207Z,4.28
2017-06-02T14:51:12.093Z,3.04
2017-06-02T14:53:42.959Z,3.36
2017-06-02T14:56:11.813Z,3.94
2017-06-02T14:58:40.750Z,2.46
2017-06-02T15:01:09.601Z,2.78
2017-06-02T15:03:38.666Z,2.04
2017-06-02T15:06:07.747Z,1.56
2017-06-02T15:08:36.754Z,3.72
2017-06-02T15:11:05.616Z,1.84
2017-06-02T15:13:34.583Z,4.74
2017-06-02T15:16:03.501Z,2.92
2017-06-02T15:18:31.632Z,3.94
2017-06-02T15:21:00.527Z,4.14
2017-06-02T15:23:29.399Z,3.82
2017-06-02T15:26:00.767Z,2.48
2017-06-02T15:28:29.816Z,4.30
2017-06-02T15:30:58.705Z,2.50
2017-06-02T15:33:27.599Z,2.68
2017-06-02T15:35:56.492Z,2.52
2017-06-02T15:38:25.432Z,2.64
2017-06-02T15:40:54.368Z,4.08
2017-06-02T15:43:22.512Z,2.72
2017-06-02T15:45:53.873Z,2.76
2017-06-02T15:48:22.086Z,1.60
2017-06-02T15:50:50.999Z,4.08
2017-06-02T15:53:19.933Z,5.50
2017-06-02T15:55:48.779Z,1.90
2017-06-02T15:58:17.727Z,3.64
2017-06-02T16:00:46.614Z,2.34
2017-06-02T16:03:15.555Z,2.04
2017-06-02T16:05:44.691Z,1.94
2017-06-02T16:08:14.292Z,1.68
2017-06-02T16:10:43.165Z,1.58
2017-06-02T16:13:12.055Z,1.60
2017-06-02T16:15:40.942Z,1.18
2017-06-02T16:18:09.883Z,1.62
2017-06-02T16:20:38.862Z,1.48
2017-06-02T16:23:07.859Z,4.60
2017-06-02T16:25:36.766Z,2.12
2017-06-02T16:28:04.930Z,1.10
2017-06-02T16:30:33.802Z,2.84
2017-06-02T16:33:02.672Z,1.06
2017-06-02T16:35:31.558Z,0.92
2017-06-02T16:38:00.507Z,1.16
2017-06-02T16:40:29.462Z,2.08
2017-06-02T16:42:58.350Z,1.24
2017-06-02T16:45:27.238Z,1.92
2017-06-02T16:47:56.231Z,1.50
2017-06-02T16:50:24.364Z,1.26
2017-06-02T16:52:53.248Z,2.06
2017-06-02T16:55:22.840Z,2.40
2017-06-02T16:57:51.944Z,1.92
2017-06-02T17:00:20.824Z,2.36
2017-06-02T17:02:48.950Z,1.86
2017-06-02T17:05:17.855Z,1.68
2017-06-02T17:07:47.683Z,2.80
2017-06-02T17:10:16.621Z,1.32
2017-06-02T17:12:45.509Z,1.86
2017-06-02T17:15:14.390Z,2.12
2017-06-02T17:17:43.276Z,3.14
2017-06-02T17:20:12.144Z,1.48
2017-06-02T17:22:41.043Z,1.76
2017-06-02T17:25:09.900Z,2.70
2017-06-02T17:27:38.786Z,3.32
2017-06-02T17:30:08.991Z,1.62
2017-06-02T17:32:37.949Z,2.28
2017-06-02T17:35:08.071Z,1.36
2017-06-02T17:37:40.746Z,0.50
2017-06-02T17:40:10.586Z,3.50
2017-06-02T17:42:39.604Z,2.64
2017-06-02T17:45:08.584Z,0.72
2017-06-02T17:47:40.555Z,0.68
2017-06-02T17:50:09.423Z,2.34
2017-06-02T17:52:38.286Z,0.60
2017-06-02T17:55:06.786Z,1.18
2017-06-02T17:57:35.682Z,1.04
2017-06-02T18:00:04.565Z,1.56
2017-06-02T18:02:33.471Z,0.82
2017-06-02T18:05:02.343Z,1.84
2017-06-02T18:07:31.235Z,1.10
2017-06-02T18:10:00.126Z,1.00
2017-06-02T18:12:29.094Z,0.96
2017-06-02T18:14:57.965Z,1.56
2017-06-02T18:17:26.916Z,0.90
2017-06-02T18:19:56.274Z,2.30
2017-06-02T18:22:26.010Z,1.40
2017-06-02T18:24:54.939Z,0.70
2017-06-02T18:27:23.865Z,1.04
2017-06-02T18:29:53.328Z,0.68
2017-06-02T18:32:22.756Z,2.62
2017-06-02T18:34:51.770Z,1.42
2017-06-02T18:37:21.060Z,1.52
2017-06-02T18:39:50.460Z,2.12
2017-06-02T18:42:19.377Z,1.40
2017-06-02T18:44:49.980Z,1.32
2017-06-02T18:47:18.930Z,1.18
2017-06-02T18:49:48.699Z,1.32
2017-06-02T18:52:17.558Z,1.12
2017-06-02T18:54:45.705Z,1.92
2017-06-02T18:57:14.681Z,1.42
2017-06-02T18:59:43.596Z,1.30
2017-06-02T19:04:56.148Z,1.38
2017-06-02T19:07:25.091Z,1.08
2017-06-02T19:09:53.957Z,1.04
2017-06-02T19:12:22.827Z,1.78
2017-06-02T19:14:52.815Z,2.24
2017-06-02T19:17:21.734Z,1.96
2017-06-02T19:19:50.622Z,2.68
2017-06-02T19:22:18.805Z,1.30
2017-06-02T19:24:47.793Z,1.28
2017-06-02T19:27:16.670Z,1.62
2017-06-02T19:29:45.562Z,1.16
2017-06-02T19:32:14.449Z,2.34
2017-06-02T19:34:43.358Z,2.22
2017-06-02T19:37:12.270Z,1.88
2017-06-02T19:39:41.150Z,1.40
2017-06-02T19:42:10.028Z,1.26
2017-06-02T19:44:38.926Z,1.88
2017-06-02T19:47:07.767Z,1.86
2017-06-02T19:49:36.673Z,1.48
2017-06-02T19:52:04.759Z,2.54
2017-06-02T19:54:33.642Z,1.42
2017-06-02T19:57:02.540Z,1.54
2017-06-02T20:28:12.472Z,2.24
2017-06-02T20:30:41.414Z,3.18
2017-06-02T20:33:09.523Z,4.12
2017-06-02T20:35:38.481Z,2.22
2017-06-02T20:38:07.348Z,2.60
2017-06-02T20:40:36.327Z,2.70
2017-06-02T20:43:06.458Z,4.38
2017-06-02T20:45:36.224Z,3.96
2017-06-02T20:48:08.937Z,5.82
2017-06-02T20:50:39.679Z,2.50
2017-06-02T20:53:12.121Z,4.24
2017-06-02T20:55:43.126Z,4.22
2017-06-02T20:58:12.088Z,2.50
2017-06-02T21:00:42.883Z,3.00
2017-06-02T21:03:12.609Z,4.14
2017-06-02T21:05:42.514Z,4.02
2017-06-02T21:08:14.545Z,3.68
2017-06-02T21:10:42.667Z,2.90
2017-06-02T21:13:14.540Z,5.58
2017-06-02T21:15:46.682Z,4.80
2017-06-02T21:18:24.044Z,5.72
2017-06-02T21:20:52.996Z,5.44
2017-06-02T21:23:22.964Z,4.28
2017-06-02T21:25:51.902Z,3.74
2017-06-02T21:28:21.645Z,4.28
2017-06-02T21:30:57.605Z,4.10
2017-06-02T21:33:26.530Z,4.12
2017-06-02T21:35:56.550Z,3.70
2017-06-02T21:38:25.494Z,3.80
2017-06-02T21:40:54.335Z,3.42
2017-06-02T21:43:30.222Z,4.22
2017-06-02T21:46:00.282Z,5.00
2017-06-02T21:48:29.197Z,4.98
2017-06-02T21:50:57.835Z,3.84
2017-06-02T21:53:26.759Z,4.44
2017-06-02T21:55:56.562Z,4.66
2017-06-02T21:58:28.834Z,4.90
2017-06-02T22:00:58.996Z,3.76
2017-06-02T22:03:27.863Z,5.72
2017-06-02T22:05:57.488Z,4.32
2017-06-02T22:08:32.931Z,5.10
2017-06-02T22:11:05.365Z,5.56
2017-06-02T22:13:35.585Z,5.72
2017-06-02T22:16:04.464Z,4.40
2017-06-02T22:18:33.353Z,5.14
2017-06-02T22:21:03.699Z,6.32
2017-06-02T22:23:32.592Z,4.44
2017-06-02T22:26:01.470Z,4.28
2017-06-02T22:28:30.391Z,4.48
2017-06-02T22:31:00.456Z,7.42
2017-06-02T22:33:30.624Z,6.06
2017-06-02T22:36:00.275Z,5.68
2017-06-02T22:38:31.742Z,3.76
2017-06-02T22:41:09.897Z,6.20
2017-06-02T22:43:41.709Z,4.20
2017-06-02T22:46:13.411Z,4.30
2017-06-02T22:48:44.376Z,3.88
2017-06-02T22:51:21.674Z,4.96
2017-06-02T22:53:49.809Z,4.70
2017-06-02T22:56:18.690Z,3.70
2017-06-02T22:58:50.576Z,4.82
2017-06-02T23:01:21.462Z,4.38
2017-06-02T23:03:51.030Z,4.30
2017-06-02T23:06:20.492Z,4.22
2017-06-02T23:08:50.190Z,5.42
2017-06-02T23:11:22.680Z,4.52
2017-06-02T23:13:51.561Z,5.14
2017-06-02T23:16:21.303Z,4.78
2017-06-02T23:18:50.177Z,4.68
2017-06-02T23:21:19.524Z,4.70
2017-06-02T23:23:48.953Z,4.26
2017-06-02T23:26:17.846Z,4.12
2017-06-02T23:28:47.483Z,5.12
2017-06-02T23:31:16.368Z,3.94
2017-06-02T23:33:45.230Z,3.94
2017-06-02T23:36:14.286Z,3.80
2017-06-02T23:38:42.398Z,4.10
2017-06-02T23:41:11.306Z,3.40
2017-06-02T23:43:40.203Z,4.10
2017-06-02T23:46:11.872Z,4.18
2017-06-02T23:48:40.767Z,3.68
2017-06-02T23:51:12.945Z,4.70
2017-06-02T23:53:41.816Z,3.08
2017-06-02T23:56:10.659Z,3.62
2017-06-02T23:58:39.535Z,3.68
